createdAt,value
2019-01-09T00:02:05.504Z,70.20
2019-01-09T00:04:34.989Z,70.00
2019-01-09T00:07:04.107Z,70.20
2019-01-09T00:09:34.574Z,69.80
2019-01-09T00:12:03.684Z,70.00
2019-01-09T00:14:33.304Z,70.10
2019-01-09T00:17:02.414Z,69.60
2019-01-09T00:19:31.501Z,69.50
2019-01-09T00:22:00.715Z,69.50
2019-01-09T00:24:29.784Z,69.20
2019-01-09T00:26:58.872Z,69.20
2019-01-09T00:29:28.012Z,69.50
2019-01-09T00:31:57.131Z,69.40
2019-01-09T00:34:26.783Z,69.50
2019-01-09T00:36:57.001Z,69.30
2019-01-09T00:39:26.320Z,69.40
2019-01-09T00:41:55.442Z,69.20
2019-01-09T00:44:24.614Z,69.00
2019-01-09T00:46:53.851Z,69.10
2019-01-09T00:49:22.957Z,69.00
2019-01-09T00:51:52.255Z,68.90
2019-01-09T00:54:21.350Z,68.90
2019-01-09T00:56:50.451Z,68.90
2019-01-09T00:59:25.619Z,68.90
2019-01-09T01:02:13.084Z,68.90
2019-01-09T01:05:06.525Z,69.00
2019-01-09T01:08:11.010Z,69.10
2019-01-09T01:11:22.974Z,69.10
2019-01-09T01:14:24.355Z,69.50
2019-01-09T01:17:33.226Z,69.90
2019-01-09T01:20:38.595Z,70.00
2019-01-09T01:24:09.819Z,70.00
2019-01-09T01:27:12.657Z,69.60
2019-01-09T01:30:08.320Z,69.40
2019-01-09T01:33:10.526Z,69.60
2019-01-09T01:36:14.690Z,69.10
2019-01-09T01:39:26.023Z,69.20
2019-01-09T01:42:33.074Z,69.40
2019-01-09T01:45:41.781Z,69.00
2019-01-09T01:48:47.280Z,69.30
2019-01-09T01:51:53.831Z,69.10
2019-01-09T01:55:03.468Z,69.00
2019-01-09T01:58:16.301Z,68.90
2019-01-09T02:01:29.412Z,68.70
2019-01-09T02:04:55.766Z,68.30
2019-01-09T02:08:18.057Z,68.70
2019-01-09T02:11:42.052Z,68.30
2019-01-09T02:14:39.078Z,68.80
2019-01-09T02:17:51.454Z,68.70
2019-01-09T02:21:00.105Z,69.00
2019-01-09T02:23:52.929Z,68.70
2019-01-09T02:26:54.929Z,68.90
2019-01-09T02:30:16.559Z,69.50
2019-01-09T02:32:50.846Z,69.80
2019-01-09T02:35:19.999Z,69.90
2019-01-09T02:37:51.195Z,70.10
2019-01-09T02:40:20.394Z,70.00
2019-01-09T02:42:50.038Z,70.30
2019-01-09T02:45:20.214Z,70.40
2019-01-09T02:47:49.476Z,70.40
2019-01-09T02:50:27.739Z,70.30
2019-01-09T02:53:13.922Z,70.10
2019-01-09T02:55:43.256Z,69.90
2019-01-09T02:58:20.392Z,69.70
2019-01-09T03:00:49.586Z,69.60
2019-01-09T03:03:27.295Z,70.20
2019-01-09T03:06:04.761Z,69.60
2019-01-09T03:08:35.691Z,69.60
2019-01-09T03:11:04.831Z,69.30
2019-01-09T03:13:34.004Z,69.40
2019-01-09T03:16:04.153Z,69.20
2019-01-09T03:18:33.384Z,69.30
2019-01-09T03:21:08.775Z,68.90
2019-01-09T03:23:47.157Z,69.20
2019-01-09T03:26:17.291Z,69.10
2019-01-09T03:28:46.402Z,69.00
2019-01-09T03:31:22.373Z,69.10
2019-01-09T03:33:51.593Z,69.10
2019-01-09T03:36:20.819Z,69.40
2019-01-09T03:38:49.955Z,69.10
2019-01-09T03:41:29.200Z,68.90
2019-01-09T03:43:58.396Z,68.70
2019-01-09T03:46:27.570Z,69.10
2019-01-09T03:48:56.791Z,69.30
2019-01-09T03:51:26.009Z,69.20
2019-01-09T03:53:59.315Z,69.40
2019-01-09T03:56:39.345Z,70.30
2019-01-09T03:59:08.541Z,69.60
2019-01-09T04:01:37.718Z,69.30
2019-01-09T04:04:07.851Z,69.60
2019-01-09T04:06:42.004Z,69.30
2019-01-09T04:09:17.098Z,69.70
2019-01-09T04:11:46.278Z,69.20
2019-01-09T04:17:30.218Z,68.00
2019-01-09T04:20:18.383Z,69.50
2019-01-09T04:22:59.173Z,68.90
2019-01-09T04:25:39.896Z,68.80
2019-01-09T04:28:20.845Z,68.80
2019-01-09T04:31:01.468Z,68.50
2019-01-09T04:33:42.276Z,68.50
2019-01-09T04:36:21.772Z,68.60
2019-01-09T04:39:04.623Z,68.60
2019-01-09T04:41:45.395Z,68.50
2019-01-09T04:44:26.323Z,68.50
2019-01-09T04:47:07.106Z,68.60
2019-01-09T04:49:47.814Z,68.50
2019-01-09T04:52:28.380Z,68.00
2019-01-09T04:55:09.092Z,68.50
2019-01-09T04:57:50.966Z,68.60
2019-01-09T05:00:32.255Z,68.70
2019-01-09T05:03:13.105Z,68.80
2019-01-09T05:05:42.396Z,68.10
2019-01-09T05:08:30.579Z,69.40
2019-01-09T05:11:11.209Z,68.50
2019-01-09T05:13:52.208Z,69.10
2019-01-09T05:16:33.120Z,69.90
2019-01-09T05:19:13.867Z,69.60
2019-01-09T05:21:54.633Z,70.00
2019-01-09T05:24:35.602Z,69.40
2019-01-09T05:27:16.397Z,69.30
2019-01-09T05:29:57.399Z,69.60
2019-01-09T05:32:38.224Z,69.10
2019-01-09T05:35:19.426Z,69.70
2019-01-09T05:38:00.347Z,69.30
2019-01-09T05:40:41.260Z,69.20
2019-01-09T05:43:22.296Z,69.30
2019-01-09T05:46:03.396Z,69.30
2019-01-09T05:48:44.238Z,69.50
2019-01-09T05:51:25.268Z,69.50
2019-01-09T05:54:06.139Z,69.40
2019-01-09T05:56:47.452Z,69.10
2019-01-09T05:59:28.392Z,68.90
2019-01-09T06:02:09.562Z,68.50
2019-01-09T06:04:50.598Z,68.10
2019-01-09T06:07:30.161Z,68.50
2019-01-09T06:10:10.802Z,68.30
2019-01-09T06:12:51.952Z,67.90
2019-01-09T06:15:32.927Z,68.00
2019-01-09T06:18:14.074Z,68.10
2019-01-09T06:20:55.292Z,67.90
2019-01-09T06:23:36.071Z,67.70
2019-01-09T06:26:16.979Z,67.80
2019-01-09T06:28:56.612Z,67.30
2019-01-09T06:31:37.777Z,67.40
2019-01-09T06:34:18.350Z,67.70
2019-01-09T06:36:59.062Z,68.00
2019-01-09T06:39:40.048Z,68.00
2019-01-09T06:42:20.660Z,68.20
2019-01-09T06:45:01.329Z,68.50
2019-01-09T06:47:42.611Z,68.80
2019-01-09T06:50:23.712Z,69.00
2019-01-09T06:53:04.970Z,69.00
2019-01-09T06:55:45.839Z,68.80
2019-01-09T06:58:26.590Z,68.80
2019-01-09T07:01:07.732Z,69.10
2019-01-09T07:03:48.638Z,69.30
2019-01-09T07:06:29.253Z,69.40
2019-01-09T07:09:10.179Z,69.80
2019-01-09T07:11:51.548Z,69.90
2019-01-09T07:20:16.923Z,68.10
2019-01-09T07:22:58.038Z,68.80
2019-01-09T07:25:38.824Z,68.90
2019-01-09T07:28:19.694Z,69.10
2019-01-09T07:31:00.168Z,68.70
2019-01-09T07:33:40.859Z,68.80
2019-01-09T07:36:21.619Z,69.10
2019-01-09T07:39:02.400Z,68.70
2019-01-09T07:41:43.245Z,68.30
2019-01-09T07:44:24.189Z,69.00
2019-01-09T07:47:04.820Z,69.10
2019-01-09T07:49:45.705Z,69.00
2019-01-09T07:52:26.479Z,69.40
2019-01-09T07:55:07.321Z,69.40
2019-01-09T07:57:48.514Z,69.00
2019-01-09T08:00:29.314Z,69.10
2019-01-09T08:03:05.891Z,69.50
2019-01-09T08:05:34.982Z,69.40
2019-01-09T08:08:04.170Z,69.40
2019-01-09T08:10:33.263Z,69.40
2019-01-09T08:13:15.449Z,69.20
2019-01-09T08:15:44.629Z,69.30
2019-01-09T08:18:15.795Z,70.00
2019-01-09T08:20:45.080Z,69.40
2019-01-09T08:23:16.577Z,69.10
2019-01-09T08:26:04.753Z,69.20
2019-01-09T08:28:38.084Z,68.70
2019-01-09T08:31:07.280Z,68.90
2019-01-09T08:33:55.455Z,69.00
2019-01-09T08:36:43.623Z,68.60
2019-01-09T08:39:18.704Z,67.50
2019-01-09T08:41:50.014Z,68.70
2019-01-09T08:44:20.178Z,69.00
2019-01-09T08:46:49.339Z,68.30
2019-01-09T08:49:24.577Z,68.70
2019-01-09T08:51:53.834Z,68.60
2019-01-09T08:54:23.021Z,68.50
2019-01-09T08:56:52.145Z,68.60
2019-01-09T08:59:21.251Z,68.80
2019-01-09T09:01:50.316Z,68.70
2019-01-09T09:04:19.402Z,68.70
2019-01-09T09:06:48.484Z,68.70
2019-01-09T09:09:18.358Z,68.30
2019-01-09T09:11:47.444Z,68.30
2019-01-09T09:14:16.564Z,68.30
2019-01-09T09:16:45.633Z,68.30
2019-01-09T09:19:15.860Z,68.30
2019-01-09T09:21:45.174Z,68.30
2019-01-09T09:24:14.263Z,68.20
2019-01-09T09:26:43.371Z,67.80
2019-01-09T09:29:12.511Z,67.50
2019-01-09T09:31:41.669Z,67.80
2019-01-09T09:34:10.860Z,67.10
2019-01-09T09:36:39.931Z,67.00
2019-01-09T09:39:10.423Z,67.20
2019-01-09T09:41:39.487Z,66.80
2019-01-09T09:44:08.554Z,66.80
2019-01-09T09:46:37.638Z,67.20
2019-01-09T09:49:06.694Z,66.60
2019-01-09T09:51:37.472Z,66.70
2019-01-09T09:54:14.745Z,67.10
2019-01-09T09:56:45.678Z,66.60
2019-01-09T09:59:16.974Z,66.90
2019-01-09T10:01:55.122Z,67.00
2019-01-09T10:04:24.343Z,66.70
2019-01-09T10:06:53.590Z,66.70
2019-01-09T10:09:23.738Z,66.40
2019-01-09T10:11:53.946Z,66.30
2019-01-09T10:14:24.077Z,66.20
2019-01-09T10:16:53.278Z,66.20
2019-01-09T10:19:23.539Z,66.40
2019-01-09T10:21:52.701Z,66.60
2019-01-09T10:24:21.884Z,66.60
2019-01-09T10:26:54.331Z,66.40
2019-01-09T10:29:24.494Z,66.00
2019-01-09T10:31:53.695Z,65.80
2019-01-09T10:34:22.879Z,66.10
2019-01-09T10:36:51.967Z,65.70
2019-01-09T10:39:28.267Z,65.80
2019-01-09T10:41:58.415Z,66.10
2019-01-09T10:44:28.563Z,65.90
2019-01-09T10:46:57.796Z,66.00
2019-01-09T10:49:30.034Z,65.50
2019-01-09T10:51:59.166Z,65.70
2019-01-09T10:54:28.246Z,65.00
2019-01-09T10:56:57.361Z,65.10
2019-01-09T10:59:26.475Z,65.30
2019-01-09T11:01:55.608Z,64.90
2019-01-09T11:04:24.706Z,65.00
2019-01-09T11:06:53.942Z,64.40
2019-01-09T11:09:23.057Z,64.30
2019-01-09T11:11:52.192Z,64.50
2019-01-09T11:14:21.268Z,64.30
2019-01-09T11:16:50.394Z,64.00
2019-01-09T11:19:19.551Z,63.80
2019-01-09T11:21:48.679Z,64.00
2019-01-09T11:24:17.797Z,64.20
2019-01-09T11:26:50.319Z,63.70
2019-01-09T11:29:19.449Z,63.10
2019-01-09T11:31:48.615Z,63.20
2019-01-09T11:34:17.705Z,63.00
2019-01-09T11:36:46.807Z,62.80
2019-01-09T11:39:15.902Z,62.50
2019-01-09T11:41:45.142Z,61.90
2019-01-09T11:44:16.416Z,62.50
2019-01-09T11:46:45.494Z,62.00
2019-01-09T11:49:33.669Z,62.30
2019-01-09T11:52:16.932Z,62.20
2019-01-09T11:54:58.249Z,62.20
2019-01-09T11:57:38.879Z,62.10
2019-01-09T12:00:19.807Z,62.10
2019-01-09T12:03:00.559Z,61.60
2019-01-09T12:05:41.402Z,61.30
2019-01-09T12:08:22.229Z,61.70
2019-01-09T12:11:02.976Z,61.40
2019-01-09T12:13:43.698Z,62.10
2019-01-09T12:16:25.081Z,61.90
2019-01-09T12:19:06.101Z,61.70
2019-01-09T12:21:46.856Z,60.40
2019-01-09T12:24:27.664Z,61.60
2019-01-09T12:27:08.215Z,61.90
2019-01-09T12:29:49.162Z,61.60
2019-01-09T12:32:30.106Z,61.00
2019-01-09T12:35:12.749Z,62.50
2019-01-09T12:37:45.349Z,61.50
2019-01-09T12:40:16.442Z,62.00
2019-01-09T12:42:57.116Z,62.00
2019-01-09T12:45:38.542Z,62.20
2019-01-09T12:48:19.675Z,62.30
2019-01-09T12:51:00.875Z,62.40
2019-01-09T12:53:41.613Z,62.80
2019-01-09T12:56:22.311Z,62.80
2019-01-09T12:59:03.485Z,62.60
2019-01-09T13:01:43.860Z,62.90
2019-01-09T13:04:24.568Z,63.60
2019-01-09T13:07:05.391Z,63.40
2019-01-09T13:09:46.302Z,63.30
2019-01-09T13:12:26.970Z,63.30
2019-01-09T13:15:07.929Z,63.30
2019-01-09T13:17:48.480Z,63.50
2019-01-09T13:20:29.660Z,63.90
2019-01-09T13:23:10.583Z,64.50
2019-01-09T13:25:51.287Z,64.00
2019-01-09T13:28:32.154Z,64.60
2019-01-09T13:31:12.888Z,64.90
2019-01-09T13:33:53.641Z,65.20
2019-01-09T13:36:34.643Z,65.40
2019-01-09T13:39:15.228Z,65.50
2019-01-09T13:41:56.144Z,65.20
2019-01-09T13:44:36.594Z,65.70
2019-01-09T13:47:17.384Z,66.00
2019-01-09T13:49:58.127Z,66.60
2019-01-09T13:52:38.935Z,66.50
2019-01-09T13:55:19.883Z,66.50
2019-01-09T13:58:00.996Z,66.70
2019-01-09T14:00:41.554Z,66.80
2019-01-09T14:03:23.198Z,67.00
2019-01-09T14:05:57.639Z,66.30
2019-01-09T14:08:26.710Z,67.30
2019-01-09T14:11:14.926Z,67.40
2019-01-09T14:13:44.048Z,67.20
2019-01-09T14:16:13.120Z,67.70
2019-01-09T14:18:42.226Z,67.60
2019-01-09T14:21:11.290Z,67.80
2019-01-09T14:23:40.414Z,67.80
2019-01-09T14:26:09.558Z,67.90
2019-01-09T14:28:38.640Z,67.70
2019-01-09T14:31:07.704Z,67.80
2019-01-09T14:33:36.779Z,67.90
2019-01-09T14:36:05.859Z,68.30
2019-01-09T14:38:54.103Z,68.20
2019-01-09T14:41:23.197Z,68.50
2019-01-09T14:44:11.453Z,68.30
2019-01-09T14:46:52.152Z,68.20
2019-01-09T14:49:33.120Z,68.00
2019-01-09T14:54:43.520Z,67.90
2019-01-09T14:57:12.615Z,68.10
2019-01-09T14:59:41.700Z,68.20
2019-01-09T15:02:10.949Z,68.10
2019-01-09T15:04:40.439Z,68.10
2019-01-09T15:07:12.399Z,68.60
2019-01-09T15:09:42.193Z,68.00
2019-01-09T15:12:22.913Z,68.40
2019-01-09T15:15:03.642Z,66.70
2019-01-09T15:17:44.766Z,67.50
2019-01-09T15:20:26.100Z,67.70
2019-01-09T15:23:07.620Z,67.90
2019-01-09T15:28:32.636Z,67.60
2019-01-09T15:31:14.043Z,68.10
2019-01-09T15:33:54.915Z,68.10
2019-01-09T15:36:35.818Z,67.50
2019-01-09T15:39:17.251Z,68.10
2019-01-09T15:41:57.785Z,68.20
2019-01-09T15:44:38.423Z,67.70
2019-01-09T15:47:19.339Z,68.40
2019-01-09T15:50:00.216Z,68.30
2019-01-09T15:52:40.815Z,68.50
2019-01-09T15:55:21.872Z,68.50
2019-01-09T15:57:51.251Z,68.80
2019-01-09T16:00:40.664Z,68.80
2019-01-09T16:03:28.872Z,68.80
2019-01-09T16:06:09.575Z,68.60
2019-01-09T16:08:50.503Z,68.70
2019-01-09T16:11:30.975Z,68.50
2019-01-09T16:14:11.576Z,68.30
2019-01-09T16:19:31.163Z,68.80
2019-01-09T16:22:12.084Z,68.90
2019-01-09T16:24:53.030Z,68.80
2019-01-09T16:27:34.425Z,69.10
2019-01-09T16:30:04.938Z,69.10
2019-01-09T16:32:34.077Z,68.80
2019-01-09T16:35:03.508Z,68.80
2019-01-09T16:37:36.637Z,69.10
2019-01-09T16:40:07.794Z,69.70
2019-01-09T16:42:36.988Z,69.20
2019-01-09T16:45:09.355Z,69.10
2019-01-09T16:47:40.648Z,69.00
2019-01-09T16:50:13.149Z,68.80
2019-01-09T16:53:01.340Z,68.80
2019-01-09T16:55:30.582Z,68.20
2019-01-09T16:57:59.709Z,69.20
2019-01-09T17:00:29.937Z,69.10
2019-01-09T17:02:59.200Z,69.00
2019-01-09T17:05:28.394Z,68.80
2019-01-09T17:07:57.515Z,69.10
2019-01-09T17:10:32.993Z,69.20
2019-01-09T17:13:03.396Z,69.20
2019-01-09T17:15:32.579Z,68.90
2019-01-09T17:18:02.300Z,69.10
2019-01-09T17:20:50.535Z,69.10
2019-01-09T17:23:31.232Z,69.50
2019-01-09T17:26:11.998Z,69.10
2019-01-09T17:28:52.647Z,69.00
2019-01-09T17:31:33.667Z,68.80
2019-01-09T17:34:14.718Z,69.10
2019-01-09T17:36:55.419Z,69.10
2019-01-09T17:39:36.399Z,69.00
2019-01-09T17:42:05.613Z,69.00
2019-01-09T17:44:53.795Z,68.90
2019-01-09T17:47:34.536Z,68.60
2019-01-09T17:50:47.160Z,68.60
2019-01-09T17:53:35.340Z,68.90
2019-01-09T17:56:06.649Z,68.90
2019-01-09T17:58:56.016Z,68.90
2019-01-09T18:01:36.520Z,68.60
2019-01-09T18:04:16.696Z,68.60
2019-01-09T18:06:46.045Z,68.70
2019-01-09T18:09:35.405Z,68.70
2019-01-09T18:12:07.164Z,68.80
2019-01-09T18:14:38.022Z,68.90
2019-01-09T18:17:07.167Z,68.90
2019-01-09T18:19:36.318Z,68.90
2019-01-09T18:22:06.913Z,69.10
2019-01-09T18:24:55.109Z,68.80
2019-01-09T18:27:34.129Z,68.60
2019-01-09T18:30:11.261Z,68.40
2019-01-09T18:32:53.471Z,68.50
2019-01-09T18:36:06.181Z,68.60
2019-01-09T18:38:54.540Z,68.80
2019-01-09T18:41:52.883Z,68.80
2019-01-09T18:44:56.547Z,69.00
2019-01-09T18:47:46.693Z,69.10
2019-01-09T18:50:42.472Z,69.00
2019-01-09T18:53:32.780Z,69.00
2019-01-09T18:56:04.060Z,68.90
2019-01-09T18:58:37.785Z,68.80
2019-01-09T19:01:07.846Z,69.20
2019-01-09T19:06:24.598Z,68.40
2019-01-09T19:09:05.883Z,68.50
2019-01-09T19:11:50.663Z,67.60
2019-01-09T19:14:29.712Z,67.60
2019-01-09T19:17:10.462Z,68.50
2019-01-09T19:19:39.985Z,68.60
2019-01-09T19:22:28.180Z,68.60
2019-01-09T19:25:09.422Z,68.50
2019-01-09T19:27:50.228Z,68.50
2019-01-09T19:30:26.929Z,68.50
2019-01-09T19:33:15.142Z,68.70
2019-01-09T19:35:56.372Z,68.60
2019-01-09T19:38:36.879Z,68.60
2019-01-09T19:41:17.682Z,68.60
2019-01-09T19:43:58.276Z,68.30
2019-01-09T19:46:39.046Z,67.80
2019-01-09T19:49:19.727Z,68.50
2019-01-09T19:52:00.938Z,68.60
2019-01-09T19:54:41.674Z,68.90
2019-01-09T19:57:22.639Z,68.90
2019-01-09T20:00:04.441Z,68.90
2019-01-09T20:02:45.186Z,69.10
2019-01-09T20:05:25.903Z,69.10
2019-01-09T20:08:09.390Z,68.90
2019-01-09T20:10:50.295Z,68.20
2019-01-09T20:13:31.487Z,69.20
2019-01-09T20:16:12.419Z,69.20
2019-01-09T20:18:53.239Z,69.20
2019-01-09T20:21:34.596Z,69.20
2019-01-09T20:24:15.941Z,69.00
2019-01-09T20:26:56.538Z,68.10
2019-01-09T20:29:37.729Z,69.00
2019-01-09T20:32:18.439Z,68.80
2019-01-09T20:34:59.660Z,68.70
2019-01-09T20:37:40.539Z,68.70
2019-01-09T20:40:21.621Z,68.70
2019-01-09T20:43:02.966Z,68.60
2019-01-09T20:45:43.805Z,68.60
2019-01-09T20:48:24.396Z,68.50
2019-01-09T20:51:05.555Z,68.10
2019-01-09T20:53:46.522Z,68.20
2019-01-09T20:56:27.112Z,68.00
2019-01-09T20:59:08.292Z,67.70
2019-01-09T21:01:48.683Z,67.90
2019-01-09T21:04:29.359Z,67.80
2019-01-09T21:07:10.169Z,67.90
2019-01-09T21:12:29.683Z,67.70
2019-01-09T21:15:10.908Z,67.40
2019-01-09T21:17:51.718Z,67.70
2019-01-09T21:20:32.768Z,67.50
2019-01-09T21:23:13.923Z,67.40
2019-01-09T21:25:54.935Z,67.30
2019-01-09T21:28:36.271Z,67.30
2019-01-09T21:31:17.138Z,66.90
2019-01-09T21:33:57.831Z,66.80
2019-01-09T21:36:38.757Z,66.90
2019-01-09T21:39:19.401Z,66.80
2019-01-09T21:42:00.113Z,66.90
2019-01-09T21:44:41.314Z,66.60
2019-01-09T21:47:22.708Z,66.60
2019-01-09T21:50:03.080Z,66.60
2019-01-09T21:52:43.899Z,66.30
2019-01-09T21:55:25.023Z,66.40
2019-01-09T21:58:06.088Z,66.30
2019-01-09T22:00:47.159Z,66.50
2019-01-09T22:03:27.631Z,66.20
2019-01-09T22:06:08.492Z,66.40
2019-01-09T22:08:49.166Z,66.50
2019-01-09T22:11:30.153Z,66.50
2019-01-09T22:14:11.361Z,66.60
2019-01-09T22:16:51.898Z,66.70
2019-01-09T22:19:32.606Z,66.60
2019-01-09T22:22:13.359Z,66.60
2019-01-09T22:24:54.259Z,66.50
2019-01-09T22:27:35.164Z,66.10
2019-01-09T22:30:15.828Z,66.20
2019-01-09T22:32:56.720Z,66.60
2019-01-09T22:35:41.692Z,67.40
2019-01-09T22:38:20.536Z,66.60
2019-01-09T22:41:01.371Z,66.50
2019-01-09T22:43:42.036Z,66.50
2019-01-09T22:46:22.688Z,66.50
2019-01-09T22:49:03.395Z,66.40
2019-01-09T22:51:45.913Z,66.60
2019-01-09T22:54:35.995Z,66.50
2019-01-09T22:57:09.919Z,66.60
2019-01-09T22:59:38.979Z,66.10
2019-01-09T23:02:28.284Z,66.30
2019-01-09T23:05:16.523Z,66.00
2019-01-09T23:07:57.424Z,66.40
2019-01-09T23:10:37.183Z,66.30
2019-01-09T23:13:17.639Z,66.40
2019-01-09T23:18:37.334Z,66.40
2019-01-09T23:21:17.694Z,66.60
2019-01-09T23:23:58.844Z,66.40
2019-01-09T23:26:39.368Z,66.60
2019-01-09T23:29:20.571Z,66.50
2019-01-09T23:32:01.733Z,66.20
2019-01-09T23:37:27.452Z,66.10
2019-01-09T23:42:47.189Z,65.70
2019-01-09T23:45:28.297Z,66.40
2019-01-09T23:48:09.187Z,66.90
2019-01-09T23:50:49.859Z,66.20
2019-01-09T23:53:30.384Z,66.50
2019-01-09T23:56:10.195Z,66.40
2019-01-09T23:58:51.315Z,66.20
